.
WxDataArchive / Data Records for 2011-07-10
2011-07-09 July 2011 2011-07-11

Data Records for Sunday, 10 July 2011

Time	Temp	Chill	HIndex	Humid	Dewpt	 Wind 	HiWind	WindDir	Rain 	Barom 
-----	----	-----	------	-----	-----	------	------	-------	-----	----- 
00:00	70.1	70.1	70.1	66	58.2	0	0	---	0.00	29.952 
00:05	69.8	69.8	69.8	66	57.9	0	0	---	0.00	29.952 
00:10	69.6	69.6	69.6	66	57.7	0	0	---	0.00	29.952 
00:15	69.4	69.4	69.4	66	57.5	0	0	---	0.00	29.954 
00:20	69.3	69.3	69.3	67	57.9	0	0	---	0.00	29.954 
00:25	69.1	69.1	69.1	67	57.7	0	0	---	0.00	29.954 
00:30	68.9	68.9	68.9	68	57.9	0	0	---	0.00	29.952 
00:35	68.8	68.8	68.8	68	57.8	0	0	---	0.00	29.952 
00:40	68.6	68.6	68.6	69	58.0	0	0	---	0.00	29.952 
00:45	68.4	68.4	68.4	69	57.8	0	0	---	0.00	29.951 
00:50	68.3	68.3	68.3	69	57.7	0	0	---	0.00	29.951 
00:55	68.3	68.3	68.3	69	57.7	0	0	---	0.00	29.951 
01:00	68.1	68.1	68.1	70	57.9	0	0	---	0.00	29.951 
01:05	68.1	68.1	68.1	68	57.1	0	0	---	0.00	29.951 
01:10	67.9	67.9	67.9	68	56.9	0	0	---	0.00	29.951 
01:15	67.9	67.9	67.9	68	56.9	0	0	---	0.00	29.947 
01:20	67.9	67.9	67.9	68	56.9	0	0	---	0.00	29.947 
01:25	67.9	67.9	67.9	69	57.3	0	0	---	0.00	29.947 
01:30	68.1	68.1	68.1	69	57.5	0	0	---	0.00	29.946 
01:35	68.1	68.1	68.1	68	57.1	0	0	---	0.00	29.946 
01:40	68.1	68.1	68.1	69	57.5	0	0	---	0.00	29.946 
01:45	68.1	68.1	68.1	69	57.5	0	0	---	0.00	29.954 
01:50	68.1	68.1	68.1	68	57.1	0	0	---	0.00	29.954 
01:55	67.9	67.9	67.9	69	57.3	0	0	---	0.00	29.954 
02:00	67.9	67.9	67.9	69	57.3	0	0	---	0.00	29.953 
02:05	67.9	67.9	67.9	69	57.3	0	0	---	0.00	29.953 
02:10	67.9	67.9	67.9	69	57.3	0	0	---	0.00	29.953 
02:15	67.9	67.9	67.9	70	57.7	0	0	---	0.00	29.948 
02:20	67.9	67.9	67.9	69	57.3	0	0	---	0.00	29.948 
02:25	67.9	67.9	67.9	69	57.3	0	0	---	0.00	29.948 
02:30	67.9	67.9	67.9	69	57.3	0	0	---	0.00	29.947 
02:35	67.9	67.9	67.9	69	57.3	0	0	---	0.00	29.947 
02:40	68.1	68.1	68.1	69	57.5	0	0	---	0.00	29.947 
02:45	68.3	68.3	68.3	69	57.7	0	0	---	0.00	29.951 
02:50	68.3	68.3	68.3	68	57.3	0	0	---	0.00	29.951 
02:55	68.4	68.4	68.4	68	57.4	0	0	---	0.00	29.951 
03:00	68.4	68.4	68.4	68	57.4	0	0	---	0.00	29.946 
03:05	68.6	68.6	68.6	68	57.6	0	0	---	0.00	29.946 
03:10	68.6	68.6	68.6	68	57.6	0	0	---	0.00	29.946 
03:15	68.6	68.6	68.6	68	57.6	0	0	---	0.00	29.942 
03:20	68.6	68.6	68.6	68	57.6	0	0	---	0.00	29.942 
03:25	68.6	68.6	68.6	69	58.0	0	0	---	0.00	29.942 
03:30	68.6	68.6	68.6	69	58.0	0	0	---	0.00	29.943 
03:35	68.6	68.6	68.6	69	58.0	0	0	---	0.00	29.943 
03:40	68.6	68.6	68.6	70	58.4	0	0	---	0.00	29.943 
03:45	68.6	68.6	68.6	70	58.4	0	0	---	0.00	29.942 
03:50	68.6	68.6	68.6	71	58.8	0	0	---	0.00	29.942 
03:55	68.6	68.6	68.6	71	58.8	0	0	---	0.00	29.942 
04:00	68.4	68.4	68.4	71	58.6	0	0	---	0.00	29.944 
04:05	68.4	68.4	68.4	72	59.0	0	0	---	0.00	29.944 
04:10	68.3	68.3	68.3	72	58.9	0	0	---	0.00	29.944 
04:15	68.1	68.1	68.1	73	59.1	0	0	---	0.00	29.951 
04:20	68.1	68.1	68.1	73	59.1	0	0	---	0.00	29.951 
04:25	67.9	67.9	67.9	73	58.9	0	0	---	0.00	29.951 
04:30	67.8	67.8	67.8	74	59.2	0	0	---	0.00	29.954 
04:35	67.6	67.6	67.6	75	59.4	0	0	---	0.00	29.954 
04:40	67.4	67.4	67.4	75	59.2	0	0	---	0.00	29.954 
04:45	67.3	67.3	67.3	76	59.5	0	0	---	0.00	29.952 
04:50	67.3	67.3	67.3	77	59.8	0	0	---	0.00	29.952 
04:55	67.1	67.1	67.1	77	59.6	0	0	---	0.00	29.952 
05:00	67.1	67.1	67.1	77	59.6	0	0	---	0.00	29.955 
05:05	67.3	67.3	67.3	78	60.2	0	0	---	0.00	29.955 
05:10	67.3	67.3	67.3	78	60.2	0	0	---	0.00	29.955 
05:15	67.4	67.4	67.4	78	60.3	0	0	---	0.00	29.956 
05:20	67.4	67.4	67.4	78	60.3	0	0	---	0.00	29.956 
05:25	67.4	67.4	67.4	78	60.3	0	0	---	0.00	29.956 
05:30	67.4	67.4	67.4	78	60.3	0	0	---	0.00	29.955 
05:35	67.6	67.6	67.6	79	60.8	0	0	---	0.00	29.955 
05:40	67.6	67.6	67.6	78	60.5	0	0	---	0.00	29.955 
05:45	67.6	67.6	67.6	79	60.8	0	0	---	0.00	29.957 
05:50	67.6	67.6	67.6	79	60.8	0	0	---	0.00	29.957 
05:55	67.4	67.4	67.4	79	60.7	0	0	---	0.00	29.957 
06:00	67.3	67.3	67.3	80	60.9	0	0	---	0.00	29.966 
06:05	67.1	67.1	67.1	80	60.7	0	0	---	0.00	29.966 
06:10	66.9	66.9	66.9	80	60.5	0	0	---	0.00	29.966 
06:15	66.9	66.9	66.9	81	60.9	0	0	---	0.00	29.971 
06:20	66.8	66.8	66.8	81	60.8	0	0	---	0.00	29.971 
06:25	66.8	66.8	66.8	82	61.1	0	0	---	0.00	29.971 
06:30	66.8	66.8	66.8	82	61.1	0	0	---	0.00	29.974 
06:35	66.8	66.8	66.8	82	61.1	0	0	---	0.00	29.974 
06:40	66.8	66.8	66.8	83	61.5	0	0	---	0.00	29.974 
06:45	66.8	66.8	66.8	83	61.5	0	0	---	0.00	29.977 
06:50	66.6	66.6	66.6	83	61.3	0	0	---	0.00	29.977 
06:55	66.6	66.6	66.6	84	61.6	0	0	---	0.00	29.977 
07:00	66.8	66.8	66.8	84	61.8	0	0	---	0.00	29.982 
07:05	66.8	66.8	66.8	84	61.8	0	0	---	0.00	29.982 
07:10	66.9	66.9	66.9	85	62.2	0	0	---	0.00	29.982 
07:15	67.3	67.3	67.3	85	62.6	0	0	---	0.00	29.984 
07:20	67.4	67.4	67.4	85	62.7	0	0	---	0.00	29.984 
07:25	67.8	67.8	67.8	85	63.1	0	1	135	0.00	29.984 
07:30	68.1	68.1	68.1	85	63.4	0	0	---	0.00	29.982 
07:35	68.4	68.4	68.4	84	63.4	0	0	---	0.00	29.982 
07:40	68.8	68.8	68.8	84	63.8	0	0	---	0.00	29.982 
07:45	69.1	69.1	69.1	84	64.1	0	0	---	0.00	29.984 
07:50	69.6	69.6	69.6	84	64.5	0	0	---	0.00	29.984 
07:55	70.1	70.1	70.1	83	64.7	0	0	---	0.00	29.984 
08:00	70.4	70.4	70.4	82	64.6	0	0	---	0.00	29.978 
08:05	70.6	70.6	70.6	81	64.5	0	0	---	0.00	29.978 
08:10	70.9	70.9	70.9	82	65.1	0	0	---	0.00	29.978 
08:15	71.6	71.6	71.6	81	65.4	0	0	---	0.00	29.982 
08:20	72.7	72.7	72.7	78	65.4	0	1	180	0.00	29.982 
08:25	73.9	73.9	73.9	76	65.8	0	0	---	0.00	29.982 
08:30	74.9	74.9	74.9	74	66.0	0	1	180	0.00	29.976 
08:35	75.6	75.6	77.0	73	66.3	0	1	180	0.00	29.976 
08:40	76.3	76.3	77.9	71	66.2	0	1	180	0.00	29.976 
08:45	76.8	76.8	78.6	69	65.8	0	1	135	0.00	29.976 
08:50	77.4	77.4	79.2	69	66.4	0	1	135	0.00	29.976 
08:55	77.6	77.6	79.5	69	66.6	0	1	135	0.00	29.976 
09:00	77.9	77.9	79.8	67	66.0	0	2	270	0.00	29.983 
09:05	78.1	78.1	80.1	68	66.7	1	3	315	0.00	29.983 
09:10	78.5	78.5	80.5	67	66.6	0	2	315	0.00	29.983 
09:15	78.8	78.8	80.9	67	66.9	0	2	315	0.00	29.980 
09:20	79.4	79.4	81.6	65	66.6	0	1	315	0.00	29.980 
09:25	79.8	79.8	82.1	65	67.0	0	2	315	0.00	29.980 
09:30	79.9	79.9	82.1	64	66.6	1	4	270	0.00	29.976 
09:35	80.5	80.5	82.9	64	67.2	0	1	270	0.00	29.976 
09:40	80.7	80.7	82.9	62	66.4	1	4	270	0.00	29.976 
09:45	81.6	81.6	84.0	61	66.8	0	1	270	0.00	29.976 
09:50	82.8	82.8	85.6	60	67.5	0	2	270	0.00	29.976 
09:55	83.2	83.2	85.8	58	66.9	0	3	270	0.00	29.976 
10:00	82.8	82.8	85.4	59	67.0	1	4	270	0.00	29.972 
10:05	82.8	82.8	85.4	59	67.0	1	3	270	0.00	29.972 
10:10	82.8	82.8	85.0	57	66.0	2	4	270	0.00	29.972 
10:15	82.8	82.8	85.2	58	66.5	1	3	248	0.00	29.975 
10:20	83.2	83.2	86.0	59	67.4	0	2	248	0.00	29.975 
10:25	83.8	83.8	86.4	57	66.9	1	2	315	0.00	29.975 
10:30	84.1	84.1	86.4	55	66.2	1	3	338	0.00	29.972 
10:35	84.5	84.5	86.7	54	66.0	1	3	90	0.00	29.972 
10:40	85.1	85.1	87.4	53	66.0	1	2	45	0.00	29.972 
10:45	85.1	85.1	87.4	53	66.0	1	3	270	0.00	29.971 
10:50	85.7	85.7	88.3	53	66.6	0	2	270	0.00	29.971 
10:55	85.9	85.9	88.3	52	66.2	0	3	270	0.00	29.971 
11:00	86.1	86.1	88.3	51	65.8	1	3	270	0.00	29.971 
11:05	86.5	86.5	88.3	49	65.0	2	3	270	0.00	29.971 
11:10	86.7	86.7	88.6	49	65.2	1	2	22	0.00	29.971 
11:15	87.0	87.0	89.1	49	65.5	0	2	338	0.00	29.974 
11:20	87.2	87.2	88.8	47	64.5	0	3	292	0.00	29.974 
11:25	87.8	87.8	88.8	44	63.1	0	2	338	0.00	29.974 
11:30	88.0	88.0	88.5	42	62.0	1	3	112	0.00	29.976 
11:35	88.2	88.2	88.7	42	62.2	1	3	68	0.00	29.976 
11:40	88.4	88.4	89.3	43	63.0	1	4	90	0.00	29.976 
11:45	88.4	88.4	90.0	45	64.3	1	4	112	0.00	29.976 
11:50	88.6	88.6	89.6	43	63.2	0	3	112	0.00	29.976 
11:55	88.2	88.2	89.0	43	62.8	2	5	292	0.00	29.976 
12:00	88.2	88.2	89.0	43	62.8	1	4	112	0.00	29.978 
12:05	87.8	87.8	88.5	43	62.5	1	3	270	0.00	29.978 
12:10	88.2	88.2	89.0	43	62.8	1	4	112	0.00	29.978 
12:15	88.6	88.6	89.6	43	63.2	1	4	112	0.00	29.975 
12:20	89.3	89.3	90.6	43	63.8	0	2	90	0.00	29.975 
12:25	89.7	89.7	90.9	42	63.5	1	3	90	0.00	29.975 
12:30	90.3	90.3	91.8	42	64.0	1	4	90	0.00	29.972 
12:35	89.7	89.7	90.2	40	62.1	1	2	68	0.00	29.972 
12:40	88.8	88.8	89.3	41	62.0	1	3	68	0.00	29.972 
12:45	88.4	88.4	89.3	43	63.0	1	3	248	0.00	29.975 
12:50	88.2	88.2	89.3	44	63.5	0	2	248	0.00	29.975 
12:55	88.2	88.2	89.3	44	63.5	1	2	248	0.00	29.975 
13:00	88.0	88.0	88.5	42	62.0	1	3	248	0.00	29.973 
13:05	88.2	88.2	88.2	40	60.8	1	5	248	0.00	29.973 
13:10	88.4	88.4	88.4	40	61.0	1	2	248	0.00	29.973 
13:15	88.8	88.8	89.9	43	63.4	0	3	270	0.00	29.972 
13:20	89.5	89.5	90.3	41	62.6	1	4	292	0.00	29.972 
13:25	89.9	89.9	90.2	39	61.6	1	4	292	0.00	29.972 
13:30	90.3	90.3	90.5	38	61.2	1	3	248	0.00	29.962 
13:35	90.3	90.3	90.8	39	61.9	1	5	112	0.00	29.962 
13:40	90.5	90.5	90.4	37	60.6	1	4	90	0.00	29.962 
13:45	90.5	90.5	90.4	37	60.6	1	4	90	0.00	29.958 
13:50	90.1	90.1	89.3	35	58.7	1	3	90	0.00	29.958 
13:55	90.3	90.3	90.8	39	61.9	1	4	135	0.00	29.958 
14:00	90.5	90.5	90.1	36	59.9	1	3	292	0.00	29.957 
14:05	90.7	90.7	90.4	36	60.0	1	3	90	0.00	29.957 
14:10	90.3	90.3	89.6	35	58.9	2	4	90	0.00	29.957 
14:15	90.1	90.1	89.9	37	60.3	2	6	90	0.00	29.950 
14:20	90.1	90.1	89.9	37	60.3	2	5	90	0.00	29.950 
14:25	90.1	90.1	90.2	38	61.0	2	4	90	0.00	29.950 
14:30	90.5	90.5	89.8	35	59.1	1	3	90	0.00	29.951 
14:35	91.0	91.0	90.5	35	59.5	1	5	90	0.00	29.951 
14:40	91.0	91.0	90.5	35	59.5	2	4	90	0.00	29.951 
14:45	91.0	91.0	90.2	34	58.7	0	1	90	0.00	29.944 
14:50	91.4	91.4	91.0	35	59.8	1	5	90	0.00	29.944 
14:55	91.4	91.4	90.4	33	58.2	2	5	90	0.00	29.944 
15:00	91.2	91.2	91.1	36	60.5	2	6	68	0.00	29.933 
15:05	91.2	91.2	90.5	34	58.9	1	5	90	0.00	29.933 
15:10	91.2	91.2	91.4	37	61.2	2	5	90	0.00	29.933 
15:15	91.6	91.6	91.0	34	59.2	1	3	112	0.00	29.929 
15:20	92.1	92.1	91.7	34	59.6	1	3	112	0.00	29.929 
15:25	92.3	92.3	92.0	34	59.8	1	4	112	0.00	29.929 
15:30	92.3	92.3	91.6	33	59.0	1	4	270	0.00	29.929 
15:35	92.9	92.9	92.8	34	60.3	0	2	112	0.00	29.929 
15:40	92.9	92.9	92.1	32	58.6	1	4	292	0.00	29.929 
15:45	92.7	92.7	91.6	31	57.6	1	3	90	0.00	29.926 
15:50	93.2	93.2	92.6	32	58.9	0	2	270	0.00	29.926 
15:55	93.4	93.4	92.5	31	58.2	1	3	68	0.00	29.926 
16:00	93.6	93.6	92.8	31	58.4	1	3	270	0.00	29.924 
16:05	92.7	92.7	91.6	31	57.6	1	4	90	0.00	29.924 
16:10	92.1	92.1	91.4	33	58.8	1	2	0	0.00	29.924 
16:15	92.1	92.1	91.4	33	58.8	1	3	135	0.00	29.922 
16:20	92.5	92.5	91.3	31	57.4	1	4	68	0.00	29.922 
16:25	92.7	92.7	91.0	29	55.7	1	3	292	0.00	29.922 
16:30	92.7	92.7	91.0	29	55.7	1	3	292	0.00	29.920 
16:35	92.5	92.5	90.7	29	55.6	1	3	292	0.00	29.920 
16:40	92.7	92.7	91.6	31	57.6	0	3	292	0.00	29.920 
16:45	92.9	92.9	92.1	32	58.6	1	3	0	0.00	29.912 
16:50	92.9	92.9	91.8	31	57.8	1	3	292	0.00	29.912 
16:55	93.2	93.2	92.2	31	58.0	0	2	0	0.00	29.912 
17:00	93.4	93.4	92.2	30	57.3	1	3	22	0.00	29.917 
17:05	93.2	93.2	92.2	31	58.0	1	3	90	0.00	29.917 
17:10	93.2	93.2	91.9	30	57.1	1	4	225	0.00	29.917 
17:15	92.9	92.9	91.8	31	57.8	1	4	270	0.00	29.912 
17:20	92.5	92.5	91.3	31	57.4	1	3	270	0.00	29.912 
17:25	92.7	92.7	91.3	30	56.7	0	2	270	0.00	29.912 
17:30	92.5	92.5	91.0	30	56.5	0	2	270	0.00	29.906 
17:35	92.7	92.7	91.3	30	56.7	1	3	270	0.00	29.906 
17:40	92.7	92.7	91.3	30	56.7	1	4	270	0.00	29.906 
17:45	92.7	92.7	91.0	29	55.7	1	4	270	0.00	29.897 
17:50	92.5	92.5	91.0	30	56.5	1	3	292	0.00	29.897 
17:55	92.3	92.3	90.7	30	56.3	0	2	315	0.00	29.897 
18:00	92.1	92.1	90.8	31	57.1	0	1	315	0.00	29.900 
18:05	91.8	91.8	90.1	30	55.9	1	3	270	0.00	29.900 
18:10	91.6	91.6	90.1	31	56.6	0	2	270	0.00	29.900 
18:15	91.6	91.6	90.1	31	56.6	1	2	270	0.00	29.894 
18:20	91.2	91.2	89.6	31	56.3	0	2	270	0.00	29.894 
18:25	91.0	91.0	89.4	31	56.1	0	3	270	0.00	29.894 
18:30	90.7	90.7	89.5	33	57.6	1	3	45	0.00	29.894 
18:35	90.5	90.5	89.3	33	57.4	0	2	225	0.00	29.894 
18:40	90.5	90.5	89.5	34	58.3	0	2	112	0.00	29.894 
18:45	90.3	90.3	89.0	33	57.2	1	3	112	0.00	29.892 
18:50	90.3	90.3	89.3	34	58.1	0	1	112	0.00	29.892 
18:55	90.3	90.3	88.7	32	56.4	0	1	112	0.00	29.892 
19:00	90.1	90.1	88.5	32	56.2	0	1	112	0.00	29.886 
19:05	89.9	89.9	88.5	33	56.9	1	2	112	0.00	29.886 
19:10	89.7	89.7	88.3	33	56.7	0	1	338	0.00	29.886 
19:15	89.7	89.7	88.3	33	56.7	0	2	338	0.00	29.886 
19:20	89.5	89.5	87.8	32	55.7	1	2	90	0.00	29.886 
19:25	89.5	89.5	88.0	33	56.6	1	3	68	0.00	29.886 
19:30	89.3	89.3	87.8	33	56.4	0	2	68	0.00	29.888 
19:35	89.0	89.0	87.4	33	56.1	0	2	68	0.00	29.888 
19:40	89.0	89.0	87.7	34	56.9	0	1	68	0.00	29.888 
19:45	88.8	88.8	87.4	34	56.8	0	2	68	0.00	29.896 
19:50	88.6	88.6	87.4	35	57.4	0	1	68	0.00	29.896 
19:55	88.4	88.4	87.2	35	57.2	0	3	68	0.00	29.896 
20:00	88.4	88.4	87.2	35	57.2	0	1	68	0.00	29.894 
20:05	88.2	88.2	87.2	36	57.8	0	2	68	0.00	29.894 
20:10	88.2	88.2	86.9	35	57.0	0	1	68	0.00	29.894 
20:15	88.0	88.0	86.9	36	57.7	0	2	68	0.00	29.889 
20:20	87.8	87.8	86.9	37	58.2	0	0	---	0.00	29.889 
20:25	87.6	87.6	86.7	37	58.1	0	1	68	0.00	29.889 
20:30	87.2	87.2	86.4	38	58.5	0	0	---	0.00	29.898 
20:35	87.0	87.0	86.2	38	58.3	0	1	68	0.00	29.898 
20:40	86.5	86.5	85.8	39	58.6	0	0	---	0.00	29.898 
20:45	86.3	86.3	85.6	39	58.4	0	0	---	0.00	29.891 
20:50	85.9	85.9	85.1	39	58.0	0	1	68	0.00	29.891 
20:55	85.7	85.7	84.9	39	57.9	0	1	68	0.00	29.891 
21:00	85.5	85.5	84.9	40	58.4	0	0	---	0.00	29.886 
21:05	85.3	85.3	84.7	40	58.2	0	0	---	0.00	29.886 
21:10	84.9	84.9	84.4	41	58.5	0	0	---	0.00	29.886 
21:15	84.5	84.5	84.1	42	58.9	0	0	---	0.00	29.874 
21:20	84.0	84.0	83.8	43	59.1	0	0	---	0.00	29.874 
21:25	83.6	83.6	83.4	43	58.7	0	0	---	0.00	29.874 
21:30	83.2	83.2	83.1	44	59.0	0	0	---	0.00	29.887 
21:35	82.8	82.8	82.9	45	59.3	0	0	---	0.00	29.887 
21:40	82.4	82.4	82.6	46	59.5	0	0	---	0.00	29.887 
21:45	82.0	82.0	82.2	46	59.1	0	0	---	0.00	29.889 
21:50	81.6	81.6	81.9	47	59.4	0	0	---	0.00	29.889 
21:55	81.4	81.4	81.9	48	59.8	0	0	---	0.00	29.889 
22:00	81.1	81.1	81.7	49	60.1	0	0	---	0.00	29.890 
22:05	80.7	80.7	81.4	50	60.3	0	0	---	0.00	29.890 
22:10	80.3	80.3	81.3	52	61.0	0	0	---	0.00	29.890 
22:15	79.8	79.8	80.8	52	60.6	0	0	---	0.00	29.896 
22:20	79.4	79.4	80.5	53	60.8	0	0	---	0.00	29.896 
22:25	79.2	79.2	80.4	54	61.1	0	0	---	0.00	29.896 
22:30	78.8	78.8	80.1	55	61.2	0	0	---	0.00	29.892 
22:35	78.6	78.6	80.0	55	61.1	0	0	---	0.00	29.892 
22:40	78.3	78.3	79.7	55	60.8	0	0	---	0.00	29.892 
22:45	78.1	78.1	79.6	56	61.1	0	0	---	0.00	29.893 
22:50	77.9	77.9	79.4	56	60.9	0	0	---	0.00	29.893 
22:55	77.9	77.9	79.5	57	61.4	0	0	---	0.00	29.893 
23:00	77.7	77.7	79.3	57	61.2	0	0	---	0.00	29.901 
23:05	77.6	77.6	79.2	58	61.6	0	0	---	0.00	29.901 
23:10	77.6	77.6	79.2	58	61.6	0	0	---	0.00	29.901 
23:15	77.4	77.4	79.1	58	61.4	0	0	---	0.00	29.892 
23:20	77.4	77.4	79.1	58	61.4	0	0	---	0.00	29.892 
23:25	77.4	77.4	79.1	58	61.4	0	0	---	0.00	29.892 
23:30	77.4	77.4	79.1	57	61.0	0	0	---	0.00	29.892 
23:35	77.2	77.2	78.9	58	61.3	0	0	---	0.00	29.892 
23:40	77.2	77.2	78.9	58	61.3	0	0	---	0.00	29.892 
23:45	77.0	77.0	78.8	59	61.6	0	0	---	0.00	29.896 
23:50	76.8	76.8	78.6	60	61.8	0	0	---	0.00	29.896 
23:55	76.7	76.7	78.5	61	62.2	0	0	---	0.00	29.896 

CoCoRaHS
IN-AL-39
A2 Web Hosting
Creative Commons License
GoDaddy
search engine by freefind advanced

loaded 2018-11-19 11:29:24 • last modified 2010-11-18 10:43:29
Privacy PolicyDisclaimer
• wx.awcolley.com is powered by PmWiki v.2002016 •
• all content (unless otherwise noted) © 2018 A W Colley